createdAt,value
2018-12-15T00:00:47.205Z,7.27
2018-12-15T00:03:15.817Z,6.90
2018-12-15T00:05:44.676Z,7.00
2018-12-15T00:08:13.234Z,7.47
2018-12-15T00:10:41.776Z,5.53
2018-12-15T00:13:10.378Z,9.37
2018-12-15T00:15:40.770Z,9.57
2018-12-15T00:18:09.365Z,8.83
2018-12-15T00:20:37.924Z,8.27
2018-12-15T00:23:06.432Z,8.43
2018-12-15T00:25:34.968Z,9.07
2018-12-15T00:28:03.551Z,8.60
2018-12-15T00:30:32.188Z,9.17
2018-12-15T00:33:00.769Z,9.90
2018-12-15T00:35:29.326Z,10.73
2018-12-15T00:37:57.870Z,10.33
2018-12-15T00:40:26.438Z,7.83
2018-12-15T00:42:55.039Z,9.30
2018-12-15T00:45:23.615Z,7.93
2018-12-15T00:47:52.177Z,9.90
2018-12-15T00:50:20.715Z,7.33
2018-12-15T00:52:49.290Z,8.77
2018-12-15T00:55:17.861Z,8.30
2018-12-15T00:57:46.791Z,7.13
2018-12-15T01:00:15.428Z,8.00
2018-12-15T01:02:44.022Z,7.10
2018-12-15T01:05:13.009Z,7.27
2018-12-15T01:07:41.614Z,7.00
2018-12-15T01:10:10.260Z,6.77
2018-12-15T01:12:38.818Z,7.77
2018-12-15T01:15:07.385Z,7.07
2018-12-15T01:17:35.945Z,7.73
2018-12-15T01:20:05.406Z,6.70
2018-12-15T01:22:33.977Z,9.30
2018-12-15T01:25:02.541Z,8.90
2018-12-15T01:27:31.051Z,11.47
2018-12-15T01:29:59.599Z,10.20
2018-12-15T01:32:28.131Z,8.73
2018-12-15T01:34:56.696Z,8.50
2018-12-15T01:37:25.242Z,6.77
2018-12-15T01:39:53.812Z,6.33
2018-12-15T01:42:22.623Z,6.80
2018-12-15T01:44:51.133Z,7.63
2018-12-15T01:47:19.667Z,8.00
2018-12-15T01:49:48.208Z,7.73
2018-12-15T01:52:16.803Z,7.00
2018-12-15T01:54:45.377Z,6.30
2018-12-15T01:57:13.923Z,5.30
2018-12-15T01:59:42.817Z,7.13
2018-12-15T02:02:11.359Z,6.90
2018-12-15T02:04:39.862Z,7.47
2018-12-15T02:07:08.386Z,7.37
2018-12-15T02:09:36.939Z,7.37
2018-12-15T02:12:05.657Z,7.50
2018-12-15T02:14:34.362Z,7.93
2018-12-15T02:17:02.939Z,6.57
2018-12-15T02:19:31.813Z,6.87
2018-12-15T02:22:00.402Z,5.57
2018-12-15T02:24:29.008Z,5.83
2018-12-15T02:26:57.642Z,7.23
2018-12-15T02:29:26.197Z,7.17
2018-12-15T02:31:54.803Z,6.63
2018-12-15T02:34:23.339Z,6.67
2018-12-15T02:36:51.935Z,6.57
2018-12-15T02:39:20.524Z,6.83
2018-12-15T02:41:49.040Z,6.77
2018-12-15T02:44:17.582Z,6.37
2018-12-15T02:46:46.103Z,6.33
2018-12-15T02:49:14.710Z,5.90
2018-12-15T02:51:43.243Z,6.60
2018-12-15T02:54:11.800Z,6.40
2018-12-15T02:56:40.349Z,6.97
2018-12-15T02:59:08.956Z,6.90
2018-12-15T03:01:37.548Z,7.40
2018-12-15T03:04:06.117Z,7.00
2018-12-15T03:06:34.702Z,6.47
2018-12-15T03:09:03.617Z,7.30
2018-12-15T03:11:32.176Z,6.43
2018-12-15T03:14:00.794Z,7.10
2018-12-15T03:16:29.368Z,7.13
2018-12-15T03:19:01.171Z,5.77
2018-12-15T03:21:29.796Z,5.80
2018-12-15T03:23:58.310Z,7.27
2018-12-15T03:26:26.882Z,5.97
2018-12-15T03:28:55.409Z,6.00
2018-12-15T03:31:24.225Z,7.03
2018-12-15T03:33:52.789Z,5.60
2018-12-15T03:36:21.345Z,6.30
2018-12-15T03:38:49.874Z,7.27
2018-12-15T03:41:18.435Z,5.90
2018-12-15T03:43:46.988Z,5.40
2018-12-15T03:46:15.618Z,5.93
2018-12-15T03:48:44.189Z,5.17
2018-12-15T03:51:12.787Z,4.97
2018-12-15T03:53:41.378Z,5.67
2018-12-15T03:56:09.957Z,6.90
2018-12-15T03:58:38.553Z,7.07
2018-12-15T04:01:07.171Z,5.67
2018-12-15T04:03:35.729Z,5.20
2018-12-15T04:06:04.347Z,6.27
2018-12-15T04:08:32.885Z,6.57
2018-12-15T04:11:01.442Z,6.60
2018-12-15T04:13:30.600Z,6.67
2018-12-15T04:15:59.160Z,6.80
2018-12-15T04:18:27.698Z,7.90
2018-12-15T04:20:56.317Z,9.43
2018-12-15T04:23:24.881Z,8.73
2018-12-15T04:25:53.410Z,7.70
2018-12-15T04:28:22.087Z,6.20
2018-12-15T04:30:50.692Z,6.73
2018-12-15T04:33:19.224Z,6.10
2018-12-15T04:35:47.779Z,6.73
2018-12-15T04:38:16.357Z,7.40
2018-12-15T04:40:45.015Z,9.33
2018-12-15T04:43:13.553Z,7.23
2018-12-15T04:45:42.164Z,7.53
2018-12-15T04:48:11.515Z,8.30
2018-12-15T04:50:40.162Z,6.80
2018-12-15T04:53:08.707Z,6.07
2018-12-15T04:55:37.267Z,6.97
2018-12-15T04:58:05.813Z,5.23
2018-12-15T05:00:34.430Z,7.00
2018-12-15T05:03:03.009Z,5.83
2018-12-15T05:05:31.563Z,8.70
2018-12-15T05:08:00.962Z,8.50
2018-12-15T05:10:29.537Z,8.60
2018-12-15T05:12:58.111Z,8.07
2018-12-15T05:15:26.664Z,7.73
2018-12-15T05:17:55.207Z,8.53
2018-12-15T05:20:23.721Z,9.40
2018-12-15T05:22:52.443Z,7.40
2018-12-15T05:25:21.059Z,8.60
2018-12-15T05:27:49.667Z,8.40
2018-12-15T05:30:18.245Z,9.60
2018-12-15T05:32:46.811Z,11.80
2018-12-15T05:35:15.380Z,10.33
2018-12-15T05:37:43.991Z,10.90
2018-12-15T05:40:12.716Z,11.43
2018-12-15T05:42:41.286Z,13.10
2018-12-15T05:45:09.946Z,11.77
2018-12-15T05:47:38.501Z,11.67
2018-12-15T05:50:07.169Z,9.97
2018-12-15T05:52:35.733Z,10.83
2018-12-15T05:55:04.515Z,9.23
2018-12-15T05:57:33.022Z,11.07
2018-12-15T06:00:01.596Z,8.47
2018-12-15T06:02:30.484Z,7.97
2018-12-15T06:04:59.821Z,8.73
2018-12-15T06:07:28.401Z,8.17
2018-12-15T06:09:56.942Z,6.10
2018-12-15T06:12:25.502Z,8.00
2018-12-15T06:14:54.092Z,8.27
2018-12-15T06:17:22.683Z,9.97
2018-12-15T06:19:51.242Z,8.97
2018-12-15T06:22:20.749Z,10.47
2018-12-15T06:24:49.308Z,11.23
2018-12-15T06:27:18.157Z,11.67
2018-12-15T06:29:46.757Z,12.37
2018-12-15T06:32:15.302Z,13.40
2018-12-15T06:34:43.834Z,15.30
2018-12-15T06:37:12.361Z,16.57
2018-12-15T06:39:40.963Z,17.47
2018-12-15T06:42:09.495Z,16.83
2018-12-15T06:44:38.079Z,14.93
2018-12-15T06:47:06.643Z,16.70
2018-12-15T06:49:35.434Z,16.90
2018-12-15T06:52:03.996Z,16.97
2018-12-15T06:54:32.538Z,13.00
2018-12-15T06:57:01.076Z,13.13
2018-12-15T06:59:29.665Z,13.93
2018-12-15T07:01:58.236Z,14.20
2018-12-15T07:04:26.824Z,14.80
2018-12-15T07:06:55.385Z,15.97
2018-12-15T07:09:23.975Z,15.37
2018-12-15T07:11:52.586Z,16.57
2018-12-15T07:14:21.311Z,18.70
2018-12-15T07:16:49.946Z,19.50
2018-12-15T07:19:18.474Z,19.60
2018-12-15T07:21:47.102Z,22.67
2018-12-15T07:24:15.661Z,10.97
2018-12-15T07:26:44.244Z,11.63
2018-12-15T07:29:12.842Z,13.50
2018-12-15T07:31:41.378Z,15.47
2018-12-15T07:34:09.981Z,16.83
2018-12-15T07:36:38.874Z,17.87
2018-12-15T07:39:08.422Z,19.60
2018-12-15T07:41:37.078Z,22.90
2018-12-15T07:44:05.705Z,24.23
2018-12-15T07:46:34.250Z,24.30
2018-12-15T07:49:02.839Z,21.53
2018-12-15T07:51:31.386Z,13.80
2018-12-15T07:53:59.938Z,13.57
2018-12-15T07:56:28.559Z,10.03
2018-12-15T07:58:57.156Z,15.83
2018-12-15T08:01:25.741Z,20.07
2018-12-15T08:03:54.462Z,12.93
2018-12-15T08:06:23.135Z,15.90
2018-12-15T08:08:51.719Z,15.73
2018-12-15T08:11:25.489Z,15.83
2018-12-15T08:13:58.267Z,14.53
2018-12-15T08:16:26.819Z,14.10
2018-12-15T08:18:58.107Z,13.40
2018-12-15T08:21:25.976Z,14.57
2018-12-15T08:23:54.531Z,14.27
2018-12-15T08:26:23.118Z,12.37
2018-12-15T08:28:51.665Z,13.03
2018-12-15T08:31:20.193Z,15.63
2018-12-15T08:33:48.800Z,17.30
2018-12-15T08:36:17.490Z,18.53
2018-12-15T08:38:46.201Z,19.63
2018-12-15T08:41:14.764Z,20.30
2018-12-15T08:43:43.354Z,23.27
2018-12-15T08:46:16.461Z,24.63
2018-12-15T08:48:44.989Z,22.47
2018-12-15T08:51:13.672Z,23.50
2018-12-15T08:53:43.049Z,21.53
2018-12-15T08:56:11.707Z,23.20
2018-12-15T08:58:44.837Z,20.37
2018-12-15T09:01:13.617Z,14.00
2018-12-15T09:03:42.204Z,13.07
2018-12-15T09:06:10.766Z,15.60
2018-12-15T09:08:39.410Z,7.70
2018-12-15T09:11:07.970Z,11.97
2018-12-15T09:13:36.544Z,12.60
2018-12-15T09:16:05.131Z,12.33
2018-12-15T09:18:33.730Z,12.23
2018-12-15T09:21:02.372Z,11.10
2018-12-15T09:23:30.945Z,13.83
2018-12-15T09:25:59.514Z,14.80
2018-12-15T09:28:28.161Z,16.57
2018-12-15T09:30:56.777Z,11.67
2018-12-15T09:33:25.435Z,11.03
2018-12-15T09:35:54.001Z,8.77
2018-12-15T09:38:22.556Z,9.40
2018-12-15T09:40:51.092Z,11.90
2018-12-15T09:43:19.707Z,10.13
2018-12-15T09:45:48.258Z,9.13
2018-12-15T09:48:17.101Z,8.77
2018-12-15T09:50:45.845Z,8.47
2018-12-15T09:53:14.604Z,9.93
2018-12-15T09:55:43.135Z,11.50
2018-12-15T09:58:11.722Z,11.03
2018-12-15T10:00:40.362Z,9.67
2018-12-15T10:03:08.905Z,10.80
2018-12-15T10:05:37.495Z,9.87
2018-12-15T10:08:06.057Z,8.90
2018-12-15T10:10:34.603Z,12.93
2018-12-15T10:13:03.258Z,10.90
2018-12-15T10:15:31.763Z,11.40
2018-12-15T10:18:00.332Z,12.20
2018-12-15T10:20:34.124Z,10.83
2018-12-15T10:23:02.734Z,11.23
2018-12-15T10:25:31.569Z,11.23
2018-12-15T10:28:00.252Z,10.10
2018-12-15T10:30:33.870Z,13.10
2018-12-15T10:33:02.667Z,9.70
2018-12-15T10:35:31.241Z,10.33
2018-12-15T10:37:59.760Z,10.77
2018-12-15T10:40:28.319Z,9.23
2018-12-15T10:42:56.893Z,11.83
2018-12-15T10:45:25.473Z,12.67
2018-12-15T10:47:54.133Z,11.60
2018-12-15T10:50:22.739Z,11.80
2018-12-15T10:52:51.297Z,11.73
2018-12-15T10:55:19.866Z,11.57
2018-12-15T10:57:48.466Z,12.00
2018-12-15T11:00:22.136Z,10.13
2018-12-15T11:02:51.943Z,10.20
2018-12-15T11:05:20.761Z,11.10
2018-12-15T11:07:49.319Z,11.57
2018-12-15T11:10:17.905Z,11.40
2018-12-15T11:12:46.476Z,11.20
2018-12-15T11:15:15.020Z,12.83
2018-12-15T11:17:43.725Z,11.13
2018-12-15T11:20:12.299Z,10.67
2018-12-15T11:22:41.023Z,12.70
2018-12-15T11:25:09.694Z,12.77
2018-12-15T11:27:38.299Z,14.30
2018-12-15T11:30:20.283Z,19.57
2018-12-15T11:32:49.234Z,17.87
2018-12-15T11:35:17.866Z,12.93
2018-12-15T11:37:46.537Z,16.37
2018-12-15T11:40:15.133Z,15.57
2018-12-15T11:42:43.679Z,13.80
2018-12-15T11:45:12.263Z,15.63
2018-12-15T11:47:40.922Z,14.40
2018-12-15T11:50:10.006Z,14.10
2018-12-15T11:52:38.668Z,11.77
2018-12-15T11:55:07.370Z,13.10
2018-12-15T11:57:35.984Z,11.27
2018-12-15T12:00:12.527Z,9.97
2018-12-15T12:02:41.239Z,10.13
2018-12-15T12:05:10.162Z,11.50
2018-12-15T12:07:38.811Z,11.63
2018-12-15T12:10:07.926Z,12.50
2018-12-15T12:12:36.592Z,12.50
2018-12-15T12:15:06.719Z,11.13
2018-12-15T12:17:35.404Z,12.60
2018-12-15T12:20:05.420Z,14.07
2018-12-15T12:22:34.143Z,15.03
2018-12-15T12:25:02.731Z,15.77
2018-12-15T12:27:31.317Z,17.60
2018-12-15T12:29:59.906Z,14.60
2018-12-15T12:32:28.484Z,13.00
2018-12-15T12:34:57.037Z,14.13
2018-12-15T12:37:25.591Z,15.87
2018-12-15T12:39:54.132Z,15.13
2018-12-15T12:42:22.739Z,14.23
2018-12-15T12:44:51.304Z,14.53
2018-12-15T12:47:19.945Z,14.13
2018-12-15T12:49:48.473Z,14.90
2018-12-15T12:52:17.012Z,13.73
2018-12-15T12:54:45.591Z,15.10
2018-12-15T12:57:14.171Z,14.87
2018-12-15T12:59:42.723Z,11.87
2018-12-15T13:02:11.281Z,12.83
2018-12-15T13:04:39.808Z,12.53
2018-12-15T13:07:08.402Z,13.40
2018-12-15T13:09:37.741Z,14.30
2018-12-15T13:12:06.334Z,16.33
2018-12-15T13:14:34.902Z,16.23
2018-12-15T13:17:03.569Z,14.53
2018-12-15T13:19:32.102Z,16.03
2018-12-15T13:22:00.670Z,14.73
2018-12-15T13:24:29.452Z,13.90
2018-12-15T13:26:59.347Z,13.13
2018-12-15T13:29:28.409Z,15.13
2018-12-15T13:31:56.999Z,12.03
2018-12-15T13:34:25.597Z,13.23
2018-12-15T13:36:54.433Z,11.53
2018-12-15T13:39:23.315Z,13.03
2018-12-15T13:41:52.000Z,14.90
2018-12-15T13:44:20.787Z,14.97
2018-12-15T13:46:49.543Z,15.63
2018-12-15T13:49:18.083Z,13.53
2018-12-15T13:51:46.701Z,15.20
2018-12-15T13:54:15.263Z,15.97
2018-12-15T13:56:43.862Z,17.77
2018-12-15T13:59:12.431Z,15.90
2018-12-15T14:01:41.031Z,14.90
2018-12-15T14:04:09.660Z,14.33
2018-12-15T14:06:38.250Z,15.97
2018-12-15T14:09:08.598Z,15.73
2018-12-15T14:11:37.200Z,17.30
2018-12-15T14:14:05.789Z,17.27
2018-12-15T14:16:34.400Z,14.57
2018-12-15T14:19:02.981Z,13.70
2018-12-15T14:21:31.593Z,12.17
2018-12-15T14:24:00.280Z,13.23
2018-12-15T14:26:28.921Z,13.90
2018-12-15T14:28:57.555Z,13.77
2018-12-15T14:31:26.286Z,15.63
2018-12-15T14:33:54.905Z,16.37
2018-12-15T14:36:23.515Z,17.13
2018-12-15T14:38:52.238Z,19.03
2018-12-15T14:41:20.851Z,16.83
2018-12-15T14:43:49.523Z,15.47
2018-12-15T14:46:18.147Z,14.03
2018-12-15T14:48:46.830Z,14.03
2018-12-15T14:51:15.507Z,16.10
2018-12-15T14:53:44.140Z,13.70
2018-12-15T14:56:12.720Z,14.80
2018-12-15T14:58:41.283Z,14.40
2018-12-15T15:01:09.869Z,16.23
2018-12-15T15:03:38.458Z,16.00
2018-12-15T15:06:06.992Z,18.90
2018-12-15T15:08:35.594Z,18.23
2018-12-15T15:11:04.348Z,17.90
2018-12-15T15:13:34.719Z,13.73
2018-12-15T15:16:03.929Z,15.33
2018-12-15T15:18:32.613Z,18.17
2018-12-15T15:21:01.335Z,20.70
2018-12-15T15:23:29.945Z,22.50
2018-12-15T15:25:59.631Z,18.40
2018-12-15T15:28:28.440Z,19.63
2018-12-15T15:30:57.089Z,18.37
2018-12-15T15:33:25.696Z,17.13
2018-12-15T15:35:54.227Z,19.80
2018-12-15T15:38:22.764Z,19.23
2018-12-15T15:40:51.469Z,19.73
2018-12-15T15:43:20.204Z,20.17
2018-12-15T15:45:48.791Z,18.73
2018-12-15T15:48:17.355Z,18.83
2018-12-15T15:50:45.952Z,21.30
2018-12-15T15:53:14.862Z,18.20
2018-12-15T15:55:43.418Z,17.17
2018-12-15T15:58:12.113Z,17.97
2018-12-15T16:00:40.717Z,16.23
2018-12-15T16:03:09.312Z,16.87
2018-12-15T16:05:37.922Z,17.03
2018-12-15T16:08:06.532Z,18.37
2018-12-15T16:10:35.041Z,13.53
2018-12-15T16:13:03.594Z,15.37
2018-12-15T16:15:32.152Z,16.87
2018-12-15T16:18:00.681Z,17.97
2018-12-15T16:20:29.419Z,16.07
2018-12-15T16:22:58.052Z,16.63
2018-12-15T16:25:26.812Z,17.83
2018-12-15T16:28:10.192Z,18.07
2018-12-15T16:30:38.964Z,15.37
2018-12-15T16:33:07.585Z,19.57
2018-12-15T16:35:36.258Z,15.10
2018-12-15T16:38:04.847Z,18.73
2018-12-15T16:40:33.352Z,14.30
2018-12-15T16:43:01.898Z,16.53
2018-12-15T16:45:30.474Z,18.87
2018-12-15T16:47:59.135Z,16.13
2018-12-15T16:50:27.722Z,15.00
2018-12-15T16:52:56.477Z,12.47
2018-12-15T16:55:25.078Z,16.60
2018-12-15T16:57:53.985Z,15.80
2018-12-15T17:00:22.589Z,15.23
2018-12-15T17:02:51.219Z,15.40
2018-12-15T17:05:19.841Z,14.90
2018-12-15T17:07:48.392Z,15.70
2018-12-15T17:10:16.933Z,15.50
2018-12-15T17:12:45.506Z,15.77
2018-12-15T17:15:14.112Z,15.33
2018-12-15T17:17:42.719Z,16.57
2018-12-15T17:20:11.509Z,15.47
2018-12-15T17:22:40.116Z,13.23
2018-12-15T17:25:09.051Z,13.90
2018-12-15T17:27:37.717Z,16.07
2018-12-15T17:30:15.413Z,15.90
2018-12-15T17:32:44.042Z,15.10
2018-12-15T17:35:12.649Z,14.23
2018-12-15T17:37:41.275Z,16.53
2018-12-15T17:40:11.107Z,17.00
2018-12-15T17:42:39.867Z,16.83
2018-12-15T17:45:08.831Z,14.20
2018-12-15T17:47:38.143Z,15.57
2018-12-15T17:50:08.706Z,13.90
2018-12-15T17:52:37.540Z,14.47
2018-12-15T17:55:06.766Z,19.93
2018-12-15T17:57:36.009Z,23.07
2018-12-15T18:00:14.641Z,22.50
2018-12-15T18:02:43.836Z,24.23
2018-12-15T18:05:12.545Z,24.37
2018-12-15T18:07:41.158Z,25.23
2018-12-15T18:10:10.274Z,24.23
2018-12-15T18:12:38.905Z,25.63
2018-12-15T18:15:08.056Z,23.97
2018-12-15T18:17:36.682Z,26.30
2018-12-15T18:20:05.943Z,27.40
2018-12-15T18:22:34.467Z,30.63
2018-12-15T18:25:03.095Z,29.70
2018-12-15T18:27:31.688Z,30.40
2018-12-15T18:30:00.259Z,24.83
2018-12-15T18:32:28.854Z,31.93
2018-12-15T18:34:57.521Z,31.00
2018-12-15T18:37:26.180Z,24.70
2018-12-15T18:39:54.788Z,20.00
2018-12-15T18:42:23.398Z,13.20
2018-12-15T18:44:51.977Z,10.80
2018-12-15T18:47:20.600Z,10.83
2018-12-15T18:49:49.228Z,13.23
2018-12-15T18:52:17.911Z,14.00
2018-12-15T18:54:46.454Z,15.67
2018-12-15T18:57:15.374Z,18.50
2018-12-15T18:59:44.385Z,27.37
2018-12-15T19:02:12.957Z,26.00
2018-12-15T19:04:41.531Z,24.87
2018-12-15T19:07:10.079Z,28.40
2018-12-15T19:09:38.633Z,27.40
2018-12-15T19:12:07.199Z,26.13
2018-12-15T19:14:35.774Z,28.20
2018-12-15T19:17:04.571Z,27.87
2018-12-15T19:19:33.980Z,25.93
2018-12-15T19:22:02.486Z,28.40
2018-12-15T19:24:31.032Z,28.20
2018-12-15T19:26:59.684Z,31.50
2018-12-15T19:29:28.235Z,32.70
2018-12-15T19:31:56.889Z,29.87
2018-12-15T19:34:25.474Z,27.87
2018-12-15T19:36:54.037Z,22.37
2018-12-15T19:39:22.636Z,26.20
2018-12-15T19:41:51.223Z,20.30
2018-12-15T19:44:19.790Z,19.37
2018-12-15T19:46:48.368Z,23.23
2018-12-15T19:49:17.186Z,24.97
2018-12-15T19:51:45.746Z,22.23
2018-12-15T19:54:14.301Z,21.33
2018-12-15T19:56:42.903Z,13.00
2018-12-15T19:59:14.690Z,12.43
2018-12-15T20:01:43.950Z,13.50
2018-12-15T20:04:12.593Z,14.10
2018-12-15T20:06:41.188Z,14.63
2018-12-15T20:09:10.497Z,16.97
2018-12-15T20:11:39.263Z,11.97
2018-12-15T20:14:07.880Z,9.60
2018-12-15T20:16:36.431Z,8.90
2018-12-15T20:19:05.137Z,9.23
2018-12-15T20:21:36.062Z,9.07
2018-12-15T20:24:05.165Z,11.17
2018-12-15T20:26:33.768Z,11.37
2018-12-15T20:29:02.366Z,10.30
2018-12-15T20:31:31.399Z,8.87
2018-12-15T20:33:59.904Z,8.63
2018-12-15T20:36:28.552Z,7.83
2018-12-15T20:38:57.391Z,8.43
2018-12-15T20:41:25.956Z,9.37
2018-12-15T20:43:54.561Z,11.20
2018-12-15T20:46:24.145Z,11.33
2018-12-15T20:48:52.943Z,8.37
2018-12-15T20:51:22.632Z,10.20
2018-12-15T20:53:51.555Z,8.03
2018-12-15T20:56:20.157Z,9.80
2018-12-15T20:58:49.017Z,9.30
2018-12-15T21:01:17.729Z,8.53
2018-12-15T21:03:46.304Z,8.00
2018-12-15T21:06:14.925Z,8.53
2018-12-15T21:08:43.504Z,8.60
2018-12-15T21:11:12.036Z,8.77
2018-12-15T21:13:40.612Z,7.90
2018-12-15T21:16:09.480Z,9.87
2018-12-15T21:18:38.128Z,8.07
2018-12-15T21:21:07.283Z,8.23
2018-12-15T21:23:35.858Z,10.23
2018-12-15T21:26:04.539Z,9.93
2018-12-15T21:28:33.192Z,8.47
2018-12-15T21:31:01.822Z,8.70
2018-12-15T21:33:30.406Z,10.33
2018-12-15T21:35:59.012Z,9.53
2018-12-15T21:38:27.619Z,10.80
2018-12-15T21:40:56.203Z,18.63
2018-12-15T21:43:24.886Z,16.67
2018-12-15T21:45:53.576Z,11.43
2018-12-15T21:48:22.464Z,8.37
2018-12-15T21:50:51.048Z,9.43
2018-12-15T21:53:19.648Z,9.73
2018-12-15T21:55:48.236Z,9.40
2018-12-15T21:58:16.871Z,9.17
2018-12-15T22:00:45.389Z,10.47
2018-12-15T22:03:13.973Z,11.03
2018-12-15T22:05:42.562Z,12.80
2018-12-15T22:08:11.146Z,13.43
2018-12-15T22:10:39.691Z,8.40
2018-12-15T22:13:08.289Z,11.87
2018-12-15T22:15:36.820Z,10.17
2018-12-15T22:18:05.381Z,7.73
2018-12-15T22:20:34.180Z,8.33
2018-12-15T22:23:02.755Z,8.77
2018-12-15T22:25:31.430Z,8.80
2018-12-15T22:27:59.986Z,9.27
2018-12-15T22:30:28.574Z,9.10
2018-12-15T22:32:57.396Z,12.77
2018-12-15T22:35:25.955Z,15.20
2018-12-15T22:37:54.503Z,12.20
2018-12-15T22:40:23.057Z,14.10
2018-12-15T22:42:51.676Z,14.23
2018-12-15T22:45:20.168Z,12.73
2018-12-15T22:47:48.754Z,11.73
2018-12-15T22:50:17.301Z,9.83
2018-12-15T22:52:45.868Z,9.70
2018-12-15T22:55:14.394Z,9.30
2018-12-15T22:57:42.939Z,9.00
2018-12-15T23:00:14.384Z,8.60
2018-12-15T23:02:43.056Z,8.53
2018-12-15T23:05:11.778Z,8.70
2018-12-15T23:07:40.698Z,9.47
2018-12-15T23:10:09.633Z,9.53
2018-12-15T23:12:38.196Z,8.93
2018-12-15T23:15:08.020Z,8.93
2018-12-15T23:17:36.621Z,9.17
2018-12-15T23:20:06.670Z,9.67
2018-12-15T23:22:35.278Z,9.00
2018-12-15T23:25:04.345Z,8.27
2018-12-15T23:27:32.879Z,9.40
2018-12-15T23:30:01.772Z,9.40
2018-12-15T23:32:30.446Z,9.13
2018-12-15T23:34:58.994Z,8.50
2018-12-15T23:37:27.522Z,7.60
2018-12-15T23:39:56.079Z,8.23
2018-12-15T23:42:24.669Z,7.27
2018-12-15T23:44:53.210Z,6.80
2018-12-15T23:47:21.784Z,8.73
2018-12-15T23:49:50.408Z,11.30
2018-12-15T23:52:23.245Z,10.20
2018-12-15T23:54:49.587Z,10.33
2018-12-15T23:57:18.135Z,7.83
2018-12-15T23:59:46.771Z,7.13
